Terminal Aerodrome Forecast
Issued by NWS

Current Version | Previous Version | Text Only | Print | Product List | Glossary On
Versions: 1 2 3 4 5 6 7 8 9 10 11 12 13 14 15 16 17 18 19
981
FTUS46 KPDT 130541
TAFPSC
TAF
KPSC 130541Z 1306/1406 20007KT P6SM BKN050 OVC070
     FM131200 24008KT P6SM SCT050 BKN100
     FM131800 22011KT P6SM SCT070 BKN120
     FM132000 23014G20KT P6SM OVC070=

USA.gov is the U.S. government's official web portal to all federal, state and local government web resources and services.